createdAt,value
2018-02-14T00:00:48.814Z,93.88
2018-02-14T00:03:16.446Z,93.40
2018-02-14T00:05:44.036Z,93.91
2018-02-14T00:08:11.663Z,94.78
2018-02-14T00:10:39.882Z,95.44
2018-02-14T00:13:08.466Z,94.67
2018-02-14T00:15:36.057Z,93.96
2018-02-14T00:18:03.645Z,94.49
2018-02-14T00:20:31.228Z,95.10
2018-02-14T00:22:58.854Z,95.30
2018-02-14T00:25:26.438Z,95.00
2018-02-14T00:27:54.032Z,94.65
2018-02-14T00:30:22.479Z,94.81
2018-02-14T00:32:50.106Z,95.59
2018-02-14T00:35:17.731Z,95.31
2018-02-14T00:37:45.319Z,95.20
2018-02-14T00:40:12.975Z,95.74
2018-02-14T00:42:40.782Z,95.96
2018-02-14T00:45:08.412Z,95.92
2018-02-14T00:47:35.998Z,95.62
2018-02-14T00:50:03.626Z,95.37
2018-02-14T00:52:31.212Z,94.68
2018-02-14T00:54:58.847Z,93.89
2018-02-14T00:57:27.039Z,94.43
2018-02-14T00:59:54.728Z,94.64
2018-02-14T01:02:22.367Z,95.32
2018-02-14T01:04:49.998Z,95.34
2018-02-14T01:07:17.591Z,95.42
2018-02-14T01:09:45.179Z,96.10
2018-02-14T01:12:12.763Z,96.18
2018-02-14T01:14:40.355Z,95.86
2018-02-14T01:17:07.950Z,94.91
2018-02-14T01:19:37.352Z,94.67
2018-02-14T01:22:04.935Z,95.15
2018-02-14T01:24:32.561Z,95.35
2018-02-14T01:27:00.147Z,95.40
2018-02-14T01:29:27.800Z,95.74
2018-02-14T01:31:55.382Z,95.49
2018-02-14T01:34:22.966Z,95.60
2018-02-14T01:36:50.599Z,95.59
2018-02-14T01:39:18.187Z,95.79
2018-02-14T01:41:45.774Z,95.81
2018-02-14T01:44:13.368Z,95.85
2018-02-14T01:46:40.962Z,95.68
2018-02-14T01:49:08.585Z,94.88
2018-02-14T01:51:36.174Z,94.71
2018-02-14T01:54:03.876Z,95.47
2018-02-14T01:56:31.458Z,95.77
2018-02-14T01:59:00.354Z,95.76
2018-02-14T02:01:28.019Z,95.77
2018-02-14T02:03:55.664Z,96.07
2018-02-14T02:06:23.252Z,96.26
2018-02-14T02:08:50.875Z,96.23
2018-02-14T02:11:18.490Z,96.12
2018-02-14T02:13:46.080Z,94.98
2018-02-14T02:16:13.800Z,94.53
2018-02-14T02:18:41.390Z,93.93
2018-02-14T02:21:09.014Z,94.34
2018-02-14T02:23:36.642Z,93.94
2018-02-14T02:26:04.230Z,95.18
2018-02-14T02:28:31.819Z,95.67
2018-02-14T02:30:59.406Z,95.73
2018-02-14T02:33:26.990Z,95.97
2018-02-14T02:35:54.578Z,96.06
2018-02-14T02:38:22.179Z,96.04
2018-02-14T02:40:49.763Z,95.31
2018-02-14T02:43:17.432Z,94.77
2018-02-14T02:45:45.047Z,93.57
2018-02-14T02:48:13.617Z,92.33
2018-02-14T02:50:41.235Z,91.66
2018-02-14T02:53:08.823Z,92.69
2018-02-14T02:55:36.414Z,92.84
2018-02-14T02:58:04.727Z,93.43
2018-02-14T03:00:32.339Z,93.72
2018-02-14T03:03:00.120Z,92.35
2018-02-14T03:05:27.699Z,92.72
2018-02-14T03:07:55.318Z,92.42
2018-02-14T03:10:22.904Z,92.17
2018-02-14T03:12:50.492Z,92.10
2018-02-14T03:15:18.185Z,92.77
2018-02-14T03:17:45.770Z,92.77
2018-02-14T03:20:13.355Z,91.92
2018-02-14T03:22:40.974Z,93.12
2018-02-14T03:25:08.573Z,93.49
2018-02-14T03:27:36.241Z,93.70
2018-02-14T03:30:04.618Z,93.54
2018-02-14T03:32:32.923Z,92.93
2018-02-14T03:35:00.507Z,92.67
2018-02-14T03:37:28.868Z,92.66
2018-02-14T03:39:57.177Z,92.46
2018-02-14T03:42:24.787Z,92.42
2018-02-14T03:44:52.414Z,92.33
2018-02-14T03:47:20.003Z,92.04
2018-02-14T03:49:47.583Z,92.23
2018-02-14T03:52:16.025Z,92.08
2018-02-14T03:54:43.612Z,92.38
2018-02-14T03:57:11.251Z,93.26
2018-02-14T03:59:38.840Z,93.62
2018-02-14T04:02:06.422Z,93.48
2018-02-14T04:04:34.802Z,92.64
2018-02-14T04:07:03.244Z,92.18
2018-02-14T04:09:30.872Z,92.03
2018-02-14T04:11:58.460Z,92.45
2018-02-14T04:14:26.086Z,92.09
2018-02-14T04:16:53.673Z,91.51
2018-02-14T04:19:21.294Z,92.51
2018-02-14T04:21:48.878Z,94.01
2018-02-14T04:24:17.082Z,94.27
2018-02-14T04:26:44.667Z,94.99
2018-02-14T04:29:12.251Z,94.77
2018-02-14T04:31:40.594Z,94.18
2018-02-14T04:34:10.219Z,93.32
2018-02-14T04:36:37.836Z,94.42
2018-02-14T04:39:06.191Z,94.56
2018-02-14T04:41:34.524Z,94.57
2018-02-14T04:44:02.903Z,94.27
2018-02-14T04:46:31.325Z,93.94
2018-02-14T04:48:59.690Z,94.32
2018-02-14T04:51:28.090Z,94.56
2018-02-14T04:53:56.641Z,93.37
2018-02-14T04:56:24.938Z,93.77
2018-02-14T04:58:53.298Z,93.18
2018-02-14T05:01:21.822Z,92.98
2018-02-14T05:03:50.054Z,92.86
2018-02-14T05:06:17.690Z,93.50
2018-02-14T05:08:46.211Z,94.22
2018-02-14T05:11:13.795Z,94.68
2018-02-14T05:13:42.319Z,94.75
2018-02-14T05:16:10.670Z,93.93
2018-02-14T05:18:39.093Z,93.90
2018-02-14T05:21:06.714Z,92.82
2018-02-14T05:23:34.343Z,92.54
2018-02-14T05:26:01.967Z,91.88
2018-02-14T05:28:29.591Z,92.09
2018-02-14T05:30:57.179Z,91.76
2018-02-14T05:33:24.798Z,91.53
2018-02-14T05:35:52.383Z,91.60
2018-02-14T05:38:20.570Z,92.49
2018-02-14T05:40:48.967Z,92.83
2018-02-14T05:43:16.558Z,93.16
2018-02-14T05:45:44.180Z,92.63
2018-02-14T05:48:11.767Z,92.51
2018-02-14T05:50:39.479Z,92.42
2018-02-14T05:53:07.335Z,92.78
2018-02-14T05:55:35.063Z,92.46
2018-02-14T05:58:03.675Z,93.03
2018-02-14T06:00:31.310Z,93.07
2018-02-14T06:02:58.894Z,93.23
2018-02-14T06:05:26.587Z,93.26
2018-02-14T06:07:54.179Z,93.35
2018-02-14T06:10:21.800Z,93.06
2018-02-14T06:12:49.387Z,93.92
2018-02-14T06:15:17.934Z,93.86
2018-02-14T06:17:45.566Z,94.46
2018-02-14T06:20:13.228Z,93.70
2018-02-14T06:22:40.823Z,93.16
2018-02-14T06:25:09.184Z,93.54
2018-02-14T06:27:36.820Z,93.29
2018-02-14T06:30:12.979Z,93.79
2018-02-14T06:32:40.596Z,93.99
2018-02-14T06:35:08.182Z,94.32
2018-02-14T06:37:35.881Z,94.36
2018-02-14T06:40:04.364Z,94.39
2018-02-14T06:42:31.989Z,94.30
2018-02-14T06:45:00.531Z,94.92
2018-02-14T06:47:28.151Z,95.07
2018-02-14T06:49:55.740Z,94.94
2018-02-14T06:52:23.374Z,93.82
2018-02-14T06:54:51.814Z,93.67
2018-02-14T06:57:20.107Z,93.08
2018-02-14T06:59:48.476Z,92.65
2018-02-14T07:02:16.072Z,93.08
2018-02-14T07:04:43.661Z,92.87
2018-02-14T07:07:11.249Z,92.18
2018-02-14T07:09:38.836Z,91.98
2018-02-14T07:12:07.210Z,92.44
2018-02-14T07:14:35.579Z,93.52
2018-02-14T07:17:03.172Z,93.57
2018-02-14T07:19:30.766Z,93.81
2018-02-14T07:21:58.352Z,94.09
2018-02-14T07:24:25.940Z,93.17
2018-02-14T07:26:53.527Z,93.17
2018-02-14T07:29:22.047Z,93.81
2018-02-14T07:31:49.634Z,93.92
2018-02-14T07:34:17.236Z,93.52
2018-02-14T07:36:45.650Z,93.22
2018-02-14T07:39:13.949Z,93.50
2018-02-14T07:41:42.342Z,93.07
2018-02-14T07:44:10.784Z,92.61
2018-02-14T07:46:38.414Z,92.83
2018-02-14T07:49:06.016Z,93.21
2018-02-14T07:51:33.712Z,93.97
2018-02-14T07:54:01.331Z,93.28
2018-02-14T07:56:28.923Z,93.03
2018-02-14T07:58:57.438Z,93.13
2018-02-14T08:01:25.621Z,92.27
2018-02-14T08:03:53.263Z,92.79
2018-02-14T08:06:21.460Z,92.73
2018-02-14T08:08:49.090Z,92.15
2018-02-14T08:11:17.643Z,92.75
2018-02-14T08:13:45.226Z,92.74
2018-02-14T08:16:13.671Z,92.52
2018-02-14T08:18:41.256Z,92.37
2018-02-14T08:21:08.846Z,91.67
2018-02-14T08:23:36.521Z,91.89
2018-02-14T08:26:04.977Z,91.67
2018-02-14T08:28:34.087Z,92.25
2018-02-14T08:31:02.356Z,91.54
2018-02-14T08:33:30.794Z,92.01
2018-02-14T08:35:58.663Z,91.59
2018-02-14T08:38:26.346Z,90.76
2018-02-14T08:40:53.946Z,90.67
2018-02-14T08:43:21.531Z,90.55
2018-02-14T08:45:49.128Z,90.71
2018-02-14T08:48:16.760Z,89.43
2018-02-14T08:50:44.351Z,90.15
2018-02-14T08:53:11.943Z,90.62
2018-02-14T08:55:40.366Z,90.79
2018-02-14T08:58:07.963Z,90.40
2018-02-14T09:00:36.391Z,89.54
2018-02-14T09:03:04.012Z,89.19
2018-02-14T09:05:31.613Z,89.50
2018-02-14T09:07:59.215Z,88.21
2018-02-14T09:10:26.847Z,87.62
2018-02-14T09:12:54.444Z,88.06
2018-02-14T09:15:22.038Z,87.51
2018-02-14T09:17:49.634Z,88.53
2018-02-14T09:20:17.406Z,87.44
2018-02-14T09:22:44.989Z,87.54
2018-02-14T09:25:13.288Z,88.12
2018-02-14T09:27:40.899Z,87.02
2018-02-14T09:30:09.089Z,86.47
2018-02-14T09:32:36.674Z,86.61
2018-02-14T09:35:04.265Z,86.23
2018-02-14T09:37:31.925Z,85.85
2018-02-14T09:39:59.568Z,84.82
2018-02-14T09:42:27.929Z,85.02
2018-02-14T09:44:56.483Z,85.27
2018-02-14T09:47:24.059Z,85.51
2018-02-14T09:49:51.652Z,84.54
2018-02-14T09:52:19.264Z,84.17
2018-02-14T09:54:47.736Z,84.78
2018-02-14T09:57:15.313Z,82.95
2018-02-14T09:59:43.904Z,83.30
2018-02-14T10:02:11.485Z,81.59
2018-02-14T10:04:39.067Z,81.61
2018-02-14T10:07:06.790Z,81.80
2018-02-14T10:09:34.369Z,81.45
2018-02-14T10:12:02.008Z,80.38
2018-02-14T10:14:29.590Z,79.62
2018-02-14T10:16:57.167Z,80.38
2018-02-14T10:19:24.750Z,80.53
2018-02-14T10:21:52.385Z,79.98
2018-02-14T10:24:19.966Z,79.53
2018-02-14T10:26:47.551Z,79.73
2018-02-14T10:29:15.134Z,78.64
2018-02-14T10:31:42.718Z,80.78
2018-02-14T10:34:10.298Z,79.36
2018-02-14T10:36:37.869Z,79.34
2018-02-14T10:39:06.350Z,78.77
2018-02-14T10:41:33.931Z,77.08
2018-02-14T10:44:01.509Z,78.29
2018-02-14T10:46:29.096Z,78.86
2018-02-14T10:48:56.674Z,79.18
2018-02-14T10:51:24.259Z,76.32
2018-02-14T10:53:51.883Z,77.71
2018-02-14T10:56:19.463Z,76.77
2018-02-14T10:58:47.039Z,76.31
2018-02-14T11:01:20.050Z,73.93
2018-02-14T11:03:51.414Z,73.51
2018-02-14T11:06:18.990Z,74.63
2018-02-14T11:08:46.567Z,74.19
2018-02-14T11:11:14.151Z,73.81
2018-02-14T11:13:41.737Z,73.95
2018-02-14T11:16:09.348Z,73.59
2018-02-14T11:18:36.935Z,73.37
2018-02-14T11:21:04.510Z,73.76
2018-02-14T11:23:32.094Z,73.89
2018-02-14T11:25:59.677Z,73.24
2018-02-14T11:28:28.162Z,72.98
2018-02-14T11:30:55.739Z,74.59
2018-02-14T11:33:23.315Z,70.49
2018-02-14T11:35:50.891Z,71.47
2018-02-14T11:38:18.472Z,68.58
2018-02-14T11:40:46.055Z,69.23
2018-02-14T11:43:13.781Z,68.25
2018-02-14T11:45:41.394Z,70.07
2018-02-14T11:48:09.946Z,69.32
2018-02-14T11:50:38.372Z,68.56
2018-02-14T11:53:05.986Z,68.72
2018-02-14T11:55:33.565Z,65.54
2018-02-14T11:58:01.150Z,68.39
2018-02-14T12:00:28.816Z,69.16
2018-02-14T12:02:56.395Z,67.91
2018-02-14T12:05:24.006Z,68.45
2018-02-14T12:07:51.579Z,68.40
2018-02-14T12:10:19.246Z,66.09
2018-02-14T12:12:46.826Z,66.94
2018-02-14T12:15:14.406Z,66.83
2018-02-14T12:17:41.978Z,63.72
2018-02-14T12:20:09.558Z,63.87
2018-02-14T12:22:37.932Z,64.75
2018-02-14T12:25:05.516Z,62.44
2018-02-14T12:27:33.096Z,61.45
2018-02-14T12:30:01.592Z,62.99
2018-02-14T12:32:29.170Z,62.97
2018-02-14T12:34:56.743Z,62.47
2018-02-14T12:37:25.238Z,61.52
2018-02-14T12:39:52.823Z,62.74
2018-02-14T12:42:20.402Z,63.20
2018-02-14T12:44:47.983Z,60.76
2018-02-14T12:47:15.559Z,60.12
2018-02-14T12:49:43.291Z,57.67
2018-02-14T12:52:11.683Z,58.58
2018-02-14T12:54:39.270Z,59.93
2018-02-14T12:57:06.851Z,61.04
2018-02-14T12:59:35.382Z,58.99
2018-02-14T13:02:03.784Z,59.11
2018-02-14T13:04:32.282Z,57.14
2018-02-14T13:06:59.867Z,55.10
2018-02-14T13:09:27.452Z,58.34
2018-02-14T13:11:55.810Z,58.16
2018-02-14T13:14:24.446Z,57.39
2018-02-14T13:16:52.022Z,60.97
2018-02-14T13:19:20.384Z,57.90
2018-02-14T13:21:47.958Z,60.52
2018-02-14T13:24:16.365Z,57.44
2018-02-14T13:26:44.739Z,58.83
2018-02-14T13:29:13.247Z,58.11
2018-02-14T13:31:41.615Z,59.10
2018-02-14T13:34:09.270Z,57.27
2018-02-14T13:36:36.857Z,59.90
2018-02-14T13:39:04.443Z,60.84
2018-02-14T13:41:32.019Z,60.20
2018-02-14T13:43:59.647Z,59.52
2018-02-14T13:46:27.227Z,60.30
2018-02-14T13:48:54.801Z,60.06
2018-02-14T13:51:22.374Z,59.68
2018-02-14T13:53:49.957Z,60.23
2018-02-14T13:56:17.538Z,60.86
2018-02-14T13:58:45.119Z,61.82
2018-02-14T14:01:12.696Z,60.40
2018-02-14T14:03:40.273Z,59.95
2018-02-14T14:06:07.847Z,60.26
2018-02-14T14:08:35.432Z,61.21
2018-02-14T14:11:03.067Z,61.14
2018-02-14T14:13:30.624Z,60.16
2018-02-14T14:15:58.982Z,62.21
2018-02-14T14:18:26.558Z,61.37
2018-02-14T14:20:55.022Z,59.09
2018-02-14T14:23:22.643Z,60.06
2018-02-14T14:25:50.221Z,61.08
2018-02-14T14:28:17.801Z,61.40
2018-02-14T14:30:45.384Z,63.19
2018-02-14T14:33:12.990Z,58.13
2018-02-14T14:35:40.572Z,58.01
2018-02-14T14:38:08.167Z,59.93
2018-02-14T14:40:36.658Z,60.73
2018-02-14T14:43:04.311Z,63.04
2018-02-14T14:45:31.888Z,65.37
2018-02-14T14:47:59.466Z,66.09
2018-02-14T14:50:27.082Z,67.15
2018-02-14T14:52:54.658Z,67.78
2018-02-14T14:55:22.230Z,67.48
2018-02-14T14:57:49.843Z,68.11
2018-02-14T15:00:17.443Z,67.88
2018-02-14T15:02:45.026Z,69.97
2018-02-14T15:05:12.610Z,70.84
2018-02-14T15:07:40.191Z,70.58
2018-02-14T15:10:07.780Z,71.32
2018-02-14T15:12:35.396Z,71.29
2018-02-14T15:15:03.984Z,72.09
2018-02-14T15:17:31.618Z,72.52
2018-02-14T15:19:59.203Z,72.16
2018-02-14T15:22:26.778Z,72.13
2018-02-14T15:24:54.361Z,73.08
2018-02-14T15:27:21.996Z,73.60
2018-02-14T15:29:50.584Z,75.16
2018-02-14T15:32:18.162Z,75.08
2018-02-14T15:34:45.751Z,75.48
2018-02-14T15:37:13.331Z,75.76
2018-02-14T15:39:41.971Z,75.81
2018-02-14T15:42:09.554Z,76.39
2018-02-14T15:44:37.955Z,76.20
2018-02-14T15:47:05.536Z,77.08
2018-02-14T15:49:33.939Z,77.58
2018-02-14T15:52:01.522Z,77.82
2018-02-14T15:54:29.139Z,78.66
2018-02-14T15:56:56.725Z,78.79
2018-02-14T15:59:24.346Z,79.42
2018-02-14T16:01:52.733Z,79.90
2018-02-14T16:04:20.311Z,80.01
2018-02-14T16:06:47.900Z,81.14
2018-02-14T16:09:15.487Z,81.70
2018-02-14T16:11:43.062Z,81.98
2018-02-14T16:14:10.639Z,81.84
2018-02-14T16:16:39.303Z,81.41
2018-02-14T16:19:06.975Z,81.77
2018-02-14T16:21:34.563Z,81.93
2018-02-14T16:24:02.990Z,82.17
2018-02-14T16:26:31.355Z,82.67
2018-02-14T16:28:58.979Z,83.81
2018-02-14T16:31:27.250Z,83.98
2018-02-14T16:33:55.524Z,84.43
2018-02-14T16:36:23.791Z,84.72
2018-02-14T16:38:52.286Z,84.82
2018-02-14T16:41:20.559Z,85.32
2018-02-14T16:43:48.920Z,85.43
2018-02-14T16:46:17.296Z,85.92
2018-02-14T16:48:45.679Z,86.04
2018-02-14T16:51:13.266Z,86.08
2018-02-14T16:53:40.853Z,86.41
2018-02-14T16:56:09.080Z,86.37
2018-02-14T16:58:37.448Z,86.43
2018-02-14T17:01:05.091Z,87.28
2018-02-14T17:03:32.681Z,87.57
2018-02-14T17:06:00.448Z,88.45
2018-02-14T17:08:28.042Z,87.90
2018-02-14T17:10:55.691Z,88.23
2018-02-14T17:13:23.267Z,88.31
2018-02-14T17:15:51.628Z,88.40
2018-02-14T17:18:19.214Z,88.97
2018-02-14T17:20:46.803Z,88.50
2018-02-14T17:23:14.400Z,89.69
2018-02-14T17:25:42.026Z,90.13
2018-02-14T17:28:10.464Z,89.75
2018-02-14T17:30:38.066Z,89.66
2018-02-14T17:33:07.023Z,89.34
2018-02-14T17:35:35.210Z,90.46
2018-02-14T17:38:02.805Z,90.92
2018-02-14T17:40:30.440Z,90.19
2018-02-14T17:42:58.950Z,91.15
2018-02-14T17:45:26.534Z,90.87
2018-02-14T17:47:54.166Z,91.58
2018-02-14T17:50:21.759Z,91.58
2018-02-14T17:52:49.407Z,92.35
2018-02-14T17:55:17.337Z,92.52
2018-02-14T17:57:44.926Z,92.75
2018-02-14T18:00:17.074Z,92.87
2018-02-14T18:02:44.762Z,93.03
2018-02-14T18:05:12.413Z,93.05
2018-02-14T18:07:40.045Z,92.94
2018-02-14T18:10:07.634Z,93.23
2018-02-14T18:12:35.299Z,93.46
2018-02-14T18:15:02.887Z,93.42
2018-02-14T18:17:31.300Z,93.69
2018-02-14T18:19:58.882Z,93.71
2018-02-14T18:22:26.479Z,93.87
2018-02-14T18:24:54.112Z,92.65
2018-02-14T18:27:21.703Z,93.43
2018-02-14T18:29:50.542Z,93.42
2018-02-14T18:32:18.129Z,93.78
2018-02-14T18:34:45.719Z,94.04
2018-02-14T18:37:13.379Z,93.54
2018-02-14T18:39:40.983Z,93.92
2018-02-14T18:42:08.626Z,94.52
2018-02-14T18:44:36.232Z,94.98
2018-02-14T18:47:03.822Z,93.57
2018-02-14T18:49:34.263Z,93.61
2018-02-14T18:52:02.446Z,94.14
2018-02-14T18:54:30.043Z,93.42
2018-02-14T18:56:57.665Z,94.44
2018-02-14T18:59:25.283Z,94.07
2018-02-14T19:01:52.865Z,93.60
2018-02-14T19:04:20.521Z,93.55
2018-02-14T19:06:48.116Z,93.45
2018-02-14T19:09:15.710Z,93.77
2018-02-14T19:11:45.487Z,93.47
2018-02-14T19:14:16.771Z,93.92
2018-02-14T19:16:44.414Z,93.49
2018-02-14T19:19:12.835Z,93.93
2018-02-14T19:21:40.430Z,94.27
2018-02-14T19:24:08.070Z,94.30
2018-02-14T19:26:35.667Z,94.12
2018-02-14T19:29:03.301Z,94.58
2018-02-14T19:31:30.959Z,93.94
2018-02-14T19:33:58.593Z,93.78
2018-02-14T19:36:26.186Z,93.40
2018-02-14T19:38:53.779Z,92.97
2018-02-14T19:41:21.411Z,93.68
2018-02-14T19:43:49.936Z,94.12
2018-02-14T19:46:17.602Z,94.26
2018-02-14T19:48:45.242Z,94.32
2018-02-14T19:51:12.840Z,94.19
2018-02-14T19:53:40.438Z,93.85
2018-02-14T19:56:08.164Z,94.08
2018-02-14T19:58:35.858Z,93.90
2018-02-14T20:01:04.460Z,93.67
2018-02-14T20:03:32.050Z,93.60
2018-02-14T20:05:59.684Z,93.77
2018-02-14T20:08:27.280Z,93.79
2018-02-14T20:10:54.903Z,93.53
2018-02-14T20:13:22.518Z,93.27
2018-02-14T20:15:50.735Z,93.62
2018-02-14T20:18:18.335Z,94.47
2018-02-14T20:20:46.633Z,94.15
2018-02-14T20:23:15.091Z,94.14
2018-02-14T20:25:43.456Z,94.59
2018-02-14T20:28:11.819Z,94.07
2018-02-14T20:30:40.191Z,93.56
2018-02-14T20:33:07.936Z,94.19
2018-02-14T20:35:35.584Z,94.79
2018-02-14T20:38:03.390Z,94.05
2018-02-14T20:40:30.986Z,94.01
2018-02-14T20:42:58.894Z,94.44
2018-02-14T20:45:27.324Z,94.29
2018-02-14T20:47:54.962Z,94.35
2018-02-14T20:50:22.554Z,94.60
2018-02-14T20:52:50.177Z,93.97
2018-02-14T20:55:17.774Z,94.42
2018-02-14T20:57:45.374Z,94.87
2018-02-14T21:00:13.329Z,94.15
2018-02-14T21:02:40.922Z,95.07
2018-02-14T21:05:08.510Z,94.80
2018-02-14T21:07:36.103Z,94.71
2018-02-14T21:10:03.751Z,94.86
2018-02-14T21:12:31.344Z,94.08
2018-02-14T21:14:58.941Z,94.71
2018-02-14T21:17:26.574Z,94.19
2018-02-14T21:19:54.171Z,94.16
2018-02-14T21:22:21.761Z,94.18
2018-02-14T21:24:50.175Z,94.71
2018-02-14T21:27:18.569Z,94.42
2018-02-14T21:29:46.206Z,94.94
2018-02-14T21:32:13.803Z,94.51
2018-02-14T21:34:42.250Z,94.68
2018-02-14T21:37:10.633Z,94.67
2018-02-14T21:39:38.226Z,93.95
2018-02-14T21:42:06.855Z,93.90
2018-02-14T21:44:34.449Z,93.66
2018-02-14T21:47:02.048Z,94.16
2018-02-14T21:49:30.444Z,94.50
2018-02-14T21:51:58.678Z,93.91
2018-02-14T21:54:27.054Z,94.03
2018-02-14T21:56:55.427Z,94.41
2018-02-14T21:59:23.857Z,94.82
2018-02-14T22:01:51.443Z,94.64
2018-02-14T22:04:19.044Z,94.65
2018-02-14T22:06:46.642Z,94.33
2018-02-14T22:09:14.234Z,94.32
2018-02-14T22:11:41.848Z,94.08
2018-02-14T22:14:10.466Z,93.86
2018-02-14T22:16:38.055Z,94.13
2018-02-14T22:19:05.683Z,94.23
2018-02-14T22:21:33.276Z,94.33
2018-02-14T22:24:00.907Z,93.75
2018-02-14T22:26:28.556Z,93.30
2018-02-14T22:28:57.633Z,93.28
2018-02-14T22:31:25.231Z,93.67
2018-02-14T22:33:52.821Z,93.50
2018-02-14T22:36:20.442Z,94.35
2018-02-14T22:38:48.958Z,94.07
2018-02-14T22:41:17.500Z,93.89
2018-02-14T22:43:45.806Z,94.05
2018-02-14T22:46:13.435Z,94.72
2018-02-14T22:48:41.855Z,94.70
2018-02-14T22:51:09.505Z,94.49
2018-02-14T22:53:37.166Z,94.80
2018-02-14T22:56:04.787Z,95.43
2018-02-14T22:58:32.420Z,94.97
2018-02-14T23:01:00.017Z,94.63
2018-02-14T23:03:28.495Z,95.12
2018-02-14T23:05:56.906Z,95.04
2018-02-14T23:08:25.395Z,95.03
2018-02-14T23:10:53.061Z,94.64
2018-02-14T23:13:20.656Z,94.66
2018-02-14T23:15:48.307Z,94.94
2018-02-14T23:18:15.931Z,95.00
2018-02-14T23:20:44.457Z,94.73
2018-02-14T23:23:12.847Z,94.90
2018-02-14T23:25:41.267Z,94.60
2018-02-14T23:28:09.759Z,94.96
2018-02-14T23:30:37.470Z,94.91
2018-02-14T23:33:05.058Z,95.04
2018-02-14T23:35:33.531Z,94.95
2018-02-14T23:38:02.019Z,95.33
2018-02-14T23:40:30.431Z,94.97
2018-02-14T23:42:58.031Z,94.76
2018-02-14T23:45:25.680Z,94.63
2018-02-14T23:47:54.198Z,94.78
2018-02-14T23:50:21.792Z,94.95
2018-02-14T23:52:49.987Z,95.32
2018-02-14T23:55:17.621Z,95.48
2018-02-14T23:57:46.047Z,95.29
